バミューダ の空港の天気 - METARとTAF

バミューダ国際空港 ( TXKF / BDA ) - バミューダ諸島 Ferry Reach
飛行場実況気象(Metar)
観測時間05/28 06:55 ADT (05/28 09:55 UTC)
風向・風速南南東 5m/s
視程10km以上
天気現象周辺でしゅう雨
全天の4割程度の雲 雲底高度 300m
全天の8割程度の雲 雲底高度 1770m
気温23℃
湿度89%
気圧1020hPa
METARTXKF 280955Z 16010KT 120V180 9999 VCSH SCT010 BKN058 23/21 Q1020
過去の天気等 Google飛行場航空写真 Wunderground天気予報

過去48時間のMETAR

飛行場予報(TAF)
発表時間: 5/28 02:37 ADT (5/28 05:37 UTC)
予報対象時間: 28日3時 ADT ~ 29日3時 ADT
風向・風速南南東 4m/s
視程10km以上
天気現象周辺でしゅう雨
全天の4割程度の雲 雲底高度 610m
全天の8割程度の雲 雲底高度 1370m
28日3時 ADT ~ 28日21時 ADT に 確率 30% で一時的に
視程4000m
天気現象しゅう雨
全天の8割程度の雲 雲底高度 430m
28日13時 ADT ~ 28日17時 ADT に徐々に
風向・風速南南西 8m/s
TAF TXKF 280537Z 2806/2906 15008KT 9999 VCSH SCT020 BKN045
PROB30 TEMPO 2806/2824 4000 SHRA BKN014
BECMG 2816/2820 20015KT